Time;durP1;ratioP1;P1;durP2;ratioP2;P2;SDS_P1;SDS_P2;PMS_P1;PMS_P2;Temp;Humidity;BMP_temperature;BMP_pressure;BME280_temperature;BME280_humidity;BME280_pressure;Samples;Min_cycle;Max_cycle;Signal;HPM_P1;HPM_P2
2022/12/22 03:26:14;;;;;;;7.57;4.55;;;;;;;8.17;100.00;99632.66;5033585;28;20100;-79
2022/12/22 03:28:41;;;;;;;7.03;4.50;;;;;;;8.19;100.00;99628.09;5032026;28;20456;-78
2022/12/22 03:31:09;;;;;;;7.25;4.85;;;;;;;8.17;100.00;99629.22;5027587;28;20072;-79
2022/12/22 03:33:37;;;;;;;6.32;4.60;;;;;;;8.20;100.00;99621.91;5029026;28;20077;-79
2022/12/22 03:36:05;;;;;;;5.97;4.18;;;;;;;8.27;100.00;99627.28;5028221;28;20133;-78
2022/12/22 03:38:32;;;;;;;5.45;4.35;;;;;;;8.30;100.00;99617.31;5021935;28;20096;-79
2022/12/22 03:40:59;;;;;;;5.75;4.35;;;;;;;8.28;100.00;99608.88;5020461;28;20054;-78
2022/12/22 03:49:10;;;;;;;8.57;4.72;;;;;;;8.32;100.00;99604.13;5018634;28;20084;-79
2022/12/22 03:51:40;;;;;;;7.90;4.30;;;;;;;8.37;100.00;99614.09;5016402;28;20120;-78
2022/12/22 03:54:07;;;;;;;7.32;4.70;;;;;;;8.31;100.00;99608.53;5015091;28;20050;-78
2022/12/22 03:56:34;;;;;;;6.45;3.78;;;;;;;8.38;100.00;99607.91;5015426;28;20081;-78
2022/12/22 03:59:00;;;;;;;9.63;4.70;;;;;;;8.35;100.00;99610.84;5014668;28;20050;-76
2022/12/22 04:01:27;;;;;;;5.43;4.32;;;;;;;8.41;100.00;99592.75;5014741;28;20080;-78
2022/12/22 04:03:56;;;;;;;8.38;4.43;;;;;;;8.38;100.00;99587.84;5015332;28;20054;-78
2022/12/22 04:06:24;;;;;;;8.75;4.63;;;;;;;8.41;100.00;99594.53;5015096;28;20054;-80
2022/12/22 04:08:50;;;;;;;6.25;4.25;;;;;;;8.38;100.00;99581.84;5016096;28;20370;-77
2022/12/22 04:14:02;;;;;;;11.32;5.25;;;;;;;8.37;100.00;99581.03;5015380;28;20060;-80
2022/12/22 04:16:29;;;;;;;10.95;4.95;;;;;;;8.35;100.00;99576.94;5015358;28;20117;-79
2022/12/22 04:18:56;;;;;;;6.53;4.80;;;;;;;8.36;100.00;99575.97;5014103;28;20085;-76
2022/12/22 04:21:24;;;;;;;7.63;5.07;;;;;;;8.36;100.00;99574.19;5016989;28;20084;-78
2022/12/22 04:23:51;;;;;;;6.68;4.95;;;;;;;8.36;100.00;99563.75;5017182;28;20109;-79
2022/12/22 04:26:18;;;;;;;8.25;5.22;;;;;;;8.35;100.00;99556.09;5016266;28;20132;-78
2022/12/22 04:28:45;;;;;;;7.70;4.80;;;;;;;8.37;100.00;99569.78;5013594;28;20050;-78
2022/12/22 04:31:12;;;;;;;7.40;4.90;;;;;;;8.40;100.00;99565.03;5014182;28;20049;-79
2022/12/22 04:33:39;;;;;;;8.82;5.38;;;;;;;8.41;100.00;99551.03;5015125;28;20054;-77
2022/12/22 04:36:06;;;;;;;7.05;5.57;;;;;;;8.44;100.00;99552.50;5015286;28;20057;-79
2022/12/22 04:38:35;;;;;;;10.52;6.38;;;;;;;8.32;100.00;99541.56;5014546;28;20113;-79
2022/12/22 04:41:01;;;;;;;10.65;6.07;;;;;;;8.37;100.00;99548.94;5015086;28;20089;-80
2022/12/22 04:43:28;;;;;;;9.55;5.68;;;;;;;8.41;100.00;99551.03;5016857;28;20133;-79
2022/12/22 04:45:56;;;;;;;7.05;5.30;;;;;;;8.47;100.00;99554.75;5017547;28;20479;-79
2022/12/22 04:48:24;;;;;;;7.85;5.72;;;;;;;8.48;100.00;99551.19;5016590;28;20050;-79
2022/12/22 04:50:52;;;;;;;8.40;6.15;;;;;;;8.47;100.00;99559.97;5015475;28;20050;-80
2022/12/22 04:53:18;;;;;;;9.30;6.32;;;;;;;8.47;100.00;99555.56;5014560;28;20088;-80
2022/12/22 04:56:01;;;;;;;9.27;6.32;;;;;;;8.51;100.00;99545.59;5013404;28;20112;-79
2022/12/22 04:58:30;;;;;;;10.40;7.10;;;;;;;8.50;100.00;99544.81;5012515;28;20428;-80
2022/12/22 05:00:57;;;;;;;11.10;6.97;;;;;;;8.54;100.00;99540.03;5012449;28;20056;-79
2022/12/22 05:03:24;;;;;;;9.77;7.13;;;;;;;8.54;100.00;99540.84;5013638;28;20058;-77
2022/12/22 05:05:51;;;;;;;10.98;7.47;;;;;;;8.55;100.00;99539.88;5013902;28;20050;-77
2022/12/22 05:08:18;;;;;;;11.27;7.78;;;;;;;8.54;100.00;99534.81;5012643;28;20436;-76
2022/12/22 05:10:45;;;;;;;13.43;7.97;;;;;;;8.54;100.00;99527.00;5012974;28;20132;-77
2022/12/22 05:13:13;;;;;;;13.52;8.73;;;;;;;8.57;100.00;99535.31;5013433;28;20081;-77
2022/12/22 05:15:39;;;;;;;11.73;8.13;;;;;;;8.56;100.00;99538.91;5013892;28;20408;-79
2022/12/22 05:18:06;;;;;;;13.07;9.30;;;;;;;8.56;100.00;99538.09;5014296;28;20133;-77
2022/12/22 05:20:35;;;;;;;11.07;8.32;;;;;;;8.74;100.00;99520.41;5020326;28;20085;-79
2022/12/22 05:23:02;;;;;;;9.75;7.80;;;;;;;8.82;100.00;99509.94;5017562;28;20081;-79
2022/12/22 05:25:28;;;;;;;11.90;8.63;;;;;;;8.87;100.00;99519.84;5014533;28;20555;-79
2022/12/22 05:27:55;;;;;;;11.80;8.25;;;;;;;8.94;100.00;99519.00;5014168;28;20097;-79
2022/12/22 05:30:23;;;;;;;13.00;9.60;;;;;;;8.88;100.00;99527.50;5012881;28;20140;-78
2022/12/22 05:32:52;;;;;;;10.20;7.50;;;;;;;8.88;100.00;99514.47;5013115;28;20100;-78
2022/12/22 05:35:19;;;;;;;6.35;5.20;;;;;;;8.99;100.00;99508.81;5012703;28;20505;-79
2022/12/22 05:37:47;;;;;;;6.80;5.72;;;;;;;8.99;100.00;99501.00;5016244;28;20122;-79
2022/12/22 05:40:14;;;;;;;8.70;6.80;;;;;;;9.03;100.00;99509.28;5016262;28;20054;-78
2022/12/22 05:42:40;;;;;;;9.82;8.05;;;;;;;8.97;100.00;99510.81;5017862;28;20481;-80
2022/12/22 05:45:12;;;;;;;10.05;8.15;;;;;;;8.90;100.00;99509.88;5016227;28;20058;-79
2022/12/22 05:47:40;;;;;;;13.07;8.45;;;;;;;8.88;100.00;99522.28;5015807;28;20046;-78
2022/12/22 05:50:08;;;;;;;10.32;8.10;;;;;;;8.88;100.00;99521.47;5013673;28;20058;-78
2022/12/22 05:52:35;;;;;;;9.65;8.23;;;;;;;8.93;100.00;99535.63;5013493;28;20509;-79
2022/12/22 05:55:02;;;;;;;14.93;11.23;;;;;;;8.97;100.00;99538.72;5014948;28;20050;-78
2022/12/22 05:57:29;;;;;;;8.68;7.30;;;;;;;9.01;100.00;99526.91;5017788;28;20132;-78
2022/12/22 05:59:56;;;;;;;9.65;8.27;;;;;;;9.01;100.00;99524.31;5015325;28;20141;-77
2022/12/22 06:02:22;;;;;;;11.73;9.77;;;;;;;8.93;100.00;99525.19;5014520;28;20472;-79
2022/12/22 06:04:50;;;;;;;14.52;10.60;;;;;;;8.87;100.00;99531.09;5016454;28;20050;-78
2022/12/22 06:07:17;;;;;;;11.45;9.63;;;;;;;8.97;100.00;99546.53;5015380;28;20141;-78
2022/12/22 06:09:44;;;;;;;24.23;16.58;;;;;;;8.86;100.00;99542.53;5013013;28;20222;-78
2022/12/22 06:12:10;;;;;;;22.90;16.75;;;;;;;8.78;100.00;99542.56;5012849;28;20108;-77
2022/12/22 06:14:37;;;;;;;21.75;16.38;;;;;;;8.74;100.00;99545.66;5014375;28;20057;-76
2022/12/22 06:17:04;;;;;;;30.25;20.38;;;;;;;8.77;100.00;99548.75;5021282;28;20050;-78
2022/12/22 06:19:30;;;;;;;26.00;17.70;;;;;;;8.75;100.00;99555.94;5019443;28;20100;-79
2022/12/22 06:21:58;;;;;;;26.80;16.80;;;;;;;8.75;100.00;99552.50;5025440;28;20053;-79
2022/12/22 06:24:25;;;;;;;19.77;14.45;;;;;;;8.66;100.00;99543.91;5025749;28;20074;-79
2022/12/22 06:26:52;;;;;;;20.27;14.45;;;;;;;8.66;100.00;99546.50;5026943;28;20088;-80
2022/12/22 06:29:18;;;;;;;19.55;13.90;;;;;;;8.69;100.00;99554.00;5015346;28;20069;-79
2022/12/22 06:31:45;;;;;;;18.92;13.70;;;;;;;8.64;100.00;99548.47;5015111;28;20129;-79
2022/12/22 06:34:12;;;;;;;19.75;13.55;;;;;;;8.62;100.00;99548.66;5018460;28;20558;-79
2022/12/22 06:36:39;;;;;;;17.73;13.38;;;;;;;8.65;100.00;99568.38;5017883;28;20140;-78
2022/12/22 06:39:08;;;;;;;23.10;19.58;;;;;;;8.71;100.00;99572.09;5015621;28;20424;-78
2022/12/22 06:44:21;;;;;;;22.58;18.65;;;;;;;8.65;100.00;99571.78;5018394;28;20475;-79
2022/12/22 06:46:48;;;;;;;20.58;16.30;;;;;;;8.66;100.00;99580.41;5018671;28;20122;-81
2022/12/22 06:49:15;;;;;;;19.13;14.95;;;;;;;8.64;100.00;99577.16;5018758;28;20487;-81
2022/12/22 06:51:41;;;;;;;16.83;14.25;;;;;;;8.62;100.00;99594.78;5018950;28;20535;-81
2022/12/22 06:54:09;;;;;;;16.98;13.25;;;;;;;8.59;100.00;99595.09;5017047;28;20129;-79
2022/12/22 06:56:36;;;;;;;16.40;12.60;;;;;;;8.55;100.00;99594.63;5016316;28;20557;-81
2022/12/22 06:59:03;;;;;;;17.50;12.23;;;;;;;8.53;100.00;99596.59;5015994;28;20045;-80
2022/12/22 07:01:29;;;;;;;20.35;14.45;;;;;;;8.51;100.00;99598.56;5017062;28;20406;-81
2022/12/22 07:03:56;;;;;;;17.42;12.80;;;;;;;8.46;100.00;99592.25;5017110;28;20515;-78
2022/12/22 07:06:23;;;;;;;22.60;13.38;;;;;;;8.44;100.00;99597.63;5016121;28;20152;-80
2022/12/22 07:08:49;;;;;;;21.40;14.25;;;;;;;8.41;100.00;99602.34;5016004;28;20105;-79
2022/12/22 07:11:17;;;;;;;19.40;13.20;;;;;;;8.43;100.00;99605.59;5015622;28;20132;-78
2022/12/22 07:13:45;;;;;;;17.85;13.25;;;;;;;8.42;100.00;99609.19;5017177;28;20518;-79
2022/12/22 07:16:11;;;;;;;17.70;12.52;;;;;;;8.40;100.00;99626.78;5015060;28;20129;-79
2022/12/22 07:18:40;;;;;;;18.50;13.38;;;;;;;8.41;100.00;99634.44;5015786;28;20049;-78
2022/12/22 07:21:09;;;;;;;18.35;13.10;;;;;;;8.42;100.00;99628.25;5015764;28;20091;-78
2022/12/22 07:23:35;;;;;;;20.15;13.57;;;;;;;8.43;100.00;99647.31;5016177;28;20077;-78
2022/12/22 07:26:03;;;;;;;18.75;13.50;;;;;;;8.49;100.00;99644.88;5015468;28;20108;-80
2022/12/22 07:28:32;;;;;;;19.20;13.15;;;;;;;8.48;100.00;99651.06;5015293;28;20085;-77
2022/12/22 07:30:58;;;;;;;18.63;13.27;;;;;;;8.52;100.00;99661.94;5015474;28;20053;-78
2022/12/22 07:33:25;;;;;;;20.58;13.13;;;;;;;8.50;100.00;99666.53;5014171;28;20050;-78
2022/12/22 07:36:01;;;;;;;14.52;11.05;;;;;;;8.52;100.00;99656.72;5014730;28;20054;-76
2022/12/22 07:38:27;;;;;;;15.32;10.73;;;;;;;8.57;100.00;99670.09;5013473;28;20085;-78
2022/12/22 07:40:57;;;;;;;14.40;9.90;;;;;;;8.68;100.00;99688.00;5014143;28;20136;-78
2022/12/22 07:43:22;;;;;;;14.07;10.73;;;;;;;8.75;100.00;99694.16;5015663;28;20647;-78
2022/12/22 07:45:51;;;;;;;12.95;10.52;;;;;;;8.86;100.00;99701.66;5013991;28;20077;-78
2022/12/22 07:51:04;;;;;;;13.32;10.68;;;;;;;8.91;100.00;99707.19;5016690;28;20265;-78
2022/12/22 07:53:32;;;;;;;14.52;11.48;;;;;;;8.87;100.00;99705.88;5014720;28;20169;-79
2022/12/22 07:56:02;;;;;;;17.05;12.38;;;;;;;8.83;100.00;99712.41;5013999;28;20046;-78
2022/12/22 07:58:28;;;;;;;14.70;10.25;;;;;;;8.91;100.00;99720.22;5014916;28;20463;-78
2022/12/22 08:00:58;;;;;;;15.45;9.13;;;;;;;8.91;100.00;99728.06;5014236;28;20129;-77
2022/12/22 08:03:25;;;;;;;16.85;9.40;;;;;;;8.98;100.00;99728.16;5014999;28;20053;-77
2022/12/22 08:05:52;;;;;;;13.63;9.00;;;;;;;8.96;100.00;99725.75;5016433;28;20072;-78
2022/12/22 08:08:18;;;;;;;15.27;11.07;;;;;;;9.04;100.00;99727.50;5015162;28;20133;-78
2022/12/22 08:10:45;;;;;;;16.42;11.40;;;;;;;9.09;100.00;99734.84;5013136;28;20149;-78
2022/12/22 08:13:12;;;;;;;19.02;13.15;;;;;;;9.13;100.00;99731.72;5015817;28;20046;-78
2022/12/22 08:15:40;;;;;;;20.80;13.82;;;;;;;9.11;100.00;99727.66;5014678;28;20050;-78
2022/12/22 08:18:08;;;;;;;20.55;14.65;;;;;;;9.14;100.00;99740.38;5014982;28;20132;-78
2022/12/22 08:20:35;;;;;;;23.02;16.15;;;;;;;9.17;100.00;99745.25;5016666;28;20129;-78
2022/12/22 08:23:01;;;;;;;24.23;16.33;;;;;;;9.23;100.00;99762.84;5014647;28;20156;-78
2022/12/22 08:25:30;;;;;;;22.52;15.95;;;;;;;9.20;100.00;99766.63;5015396;28;20057;-78
2022/12/22 08:27:57;;;;;;;25.00;15.57;;;;;;;9.22;100.00;99780.31;5015189;28;20132;-77
2022/12/22 08:30:24;;;;;;;23.50;15.48;;;;;;;9.13;100.00;99783.09;5017208;28;20137;-78
2022/12/22 08:32:51;;;;;;;24.65;14.57;;;;;;;9.20;100.00;99789.28;5014651;28;20133;-77
2022/12/22 08:35:19;;;;;;;27.75;15.32;;;;;;;9.14;100.00;99800.41;5010525;28;20499;-78
2022/12/22 08:37:48;;;;;;;29.88;16.17;;;;;;;9.14;100.00;99790.78;5015090;28;20088;-79
2022/12/22 08:40:19;;;;;;;26.70;16.27;;;;;;;9.09;100.00;99811.34;5014581;28;20038;-79
2022/12/22 08:42:51;;;;;;;28.75;16.67;;;;;;;9.08;100.00;99812.31;5014838;28;20056;-79
2022/12/22 08:45:22;;;;;;;31.00;18.37;;;;;;;9.09;100.00;99818.34;5010576;28;20064;-77
2022/12/22 08:47:49;;;;;;;32.10;19.23;;;;;;;9.06;100.00;99818.69;5011732;28;20378;-77
2022/12/22 08:50:16;;;;;;;32.30;19.00;;;;;;;9.20;100.00;99829.25;5009956;28;20237;-77
2022/12/22 08:52:44;;;;;;;29.15;17.80;;;;;;;9.20;100.00;99825.84;4997638;28;20119;-79
2022/12/22 08:55:14;;;;;;;30.27;17.92;;;;;;;9.25;100.00;99828.75;4996580;28;20505;-78
2022/12/22 08:57:41;;;;;;;32.40;18.98;;;;;;;9.25;100.00;99828.75;5011831;28;20081;-78
2022/12/22 09:00:11;;;;;;;33.33;18.88;;;;;;;9.28;100.00;99838.88;5046678;22;20091;-80
2022/12/22 09:02:38;;;;;;;33.53;19.75;;;;;;;9.29;100.00;99843.94;5036653;28;20072;-80
2022/12/22 09:05:05;;;;;;;31.15;18.95;;;;;;;9.30;100.00;99850.78;5037094;28;20130;-78
2022/12/22 09:07:32;;;;;;;30.25;19.35;;;;;;;9.24;100.00;99859.28;5034843;28;20076;-78
2022/12/22 09:09:59;;;;;;;28.98;19.23;;;;;;;9.26;100.00;99865.16;5045691;28;20124;-79
2022/12/22 09:12:26;;;;;;;32.83;19.58;;;;;;;9.23;100.00;99875.09;5051822;28;20132;-78
2022/12/22 09:14:53;;;;;;;33.50;20.38;;;;;;;9.29;100.00;99867.41;5054778;28;20067;-80
2022/12/22 09:17:19;;;;;;;31.85;20.10;;;;;;;9.28;100.00;99878.03;5054505;28;20052;-81
2022/12/22 09:19:46;;;;;;;31.25;20.02;;;;;;;9.26;100.00;99880.81;5056800;28;20052;-81
2022/12/22 09:22:12;;;;;;;29.02;18.88;;;;;;;9.32;100.00;99890.59;5054891;28;20082;-81
2022/12/22 09:24:39;;;;;;;30.80;19.35;;;;;;;9.32;100.00;99890.59;5037773;28;20140;-81
2022/12/22 09:27:08;;;;;;;30.75;20.13;;;;;;;9.32;100.00;99906.25;5038274;28;20136;-80
2022/12/22 09:29:35;;;;;;;30.45;19.17;;;;;;;9.32;100.00;99905.44;5037364;28;20064;-79
2022/12/22 09:32:01;;;;;;;31.95;19.10;;;;;;;9.32;100.00;99911.47;5052957;28;20112;-81
2022/12/22 09:34:28;;;;;;;28.40;18.08;;;;;;;9.41;100.00;99914.91;5057921;28;20049;-81
2022/12/22 09:36:55;;;;;;;27.73;18.40;;;;;;;9.41;100.00;99930.56;5056857;28;20057;-81
2022/12/22 09:39:21;;;;;;;28.83;19.35;;;;;;;9.41;100.00;99932.34;5054300;28;20147;-80
2022/12/22 09:41:50;;;;;;;26.95;18.42;;;;;;;9.40;100.00;99935.94;5057451;28;20049;-80
2022/12/22 09:44:24;;;;;;;31.35;19.98;;;;;;;9.37;100.00;99946.72;5056222;28;20049;-80
2022/12/22 09:46:53;;;;;;;30.65;20.30;;;;;;;9.36;100.00;99927.63;5045920;28;20124;-79
2022/12/22 09:49:21;;;;;;;34.08;19.60;;;;;;;9.45;100.00;99942.28;5053241;28;20133;-79
2022/12/22 09:51:51;;;;;;;32.88;19.92;;;;;;;9.35;100.00;99941.66;5056013;28;20049;-80
2022/12/22 09:54:18;;;;;;;29.05;18.23;;;;;;;9.39;100.00;99944.75;5041635;28;20136;-81
2022/12/22 09:56:44;;;;;;;27.67;16.85;;;;;;;9.38;100.00;99951.78;5038018;28;20140;-81
2022/12/22 09:59:13;;;;;;;28.58;16.92;;;;;;;9.43;100.00;99948.69;5042956;28;20081;-80
2022/12/22 10:01:55;;;;;;;28.77;17.27;;;;;;;9.49;100.00;99961.88;5049530;28;20487;-81
2022/12/22 10:04:36;;;;;;;29.33;17.05;;;;;;;9.49;100.00;99964.47;5057731;28;20087;-80
2022/12/22 10:07:13;;;;;;;28.50;17.83;;;;;;;9.58;100.00;99960.88;5057247;28;20136;-79
2022/12/22 10:09:39;;;;;;;34.42;18.65;;;;;;;9.55;100.00;99966.44;5052025;28;20061;-81
2022/12/22 10:12:07;;;;;;;30.80;17.60;;;;;;;9.68;100.00;99972.94;5062311;28;20544;-80
2022/12/22 10:14:35;;;;;;;31.95;18.65;;;;;;;9.78;100.00;99969.19;5061609;28;20079;-80
2022/12/22 10:17:19;;;;;;;33.28;18.33;;;;;;;9.85;100.00;99971.94;5045070;28;20120;-80
2022/12/22 10:19:47;;;;;;;34.03;19.05;;;;;;;9.81;100.00;99965.41;5042639;28;20052;-80
2022/12/22 10:22:25;;;;;;;30.67;18.40;;;;;;;9.85;100.00;99970.16;5041814;28;20487;-80
2022/12/22 10:24:52;;;;;;;32.72;18.50;;;;;;;9.89;100.00;99971.44;5056296;28;20053;-80
2022/12/22 10:27:21;;;;;;;31.30;17.80;;;;;;;9.95;100.00;99972.53;5060707;28;20136;-78
2022/12/22 10:29:47;;;;;;;26.77;17.85;;;;;;;9.82;100.00;99974.88;5064481;28;20084;-80
2022/12/22 10:32:18;;;;;;;29.95;18.00;;;;;;;9.86;100.00;99984.03;5049188;28;20080;-81
2022/12/22 10:35:05;;;;;;;28.33;18.00;;;;;;;9.89;100.00;99997.56;5042114;28;20168;-80
2022/12/22 10:37:34;;;;;;;25.38;16.55;;;;;;;9.81;100.00;99999.38;5042417;28;20083;-81
2022/12/22 10:40:16;;;;;;;26.65;16.70;;;;;;;9.73;100.00;99991.56;5054677;28;20045;-81
2022/12/22 10:42:47;;;;;;;26.35;17.27;;;;;;;9.72;100.00;99990.75;5061775;28;20116;-79
2022/12/22 10:45:20;;;;;;;28.35;16.33;;;;;;;9.65;100.00;100003.66;5060057;28;20063;-79
2022/12/22 10:47:50;;;;;;;28.08;16.85;;;;;;;9.58;100.00;100001.84;5042626;28;20076;-80
2022/12/22 10:50:18;;;;;;;29.30;16.88;;;;;;;9.41;100.00;100019.34;5057313;28;20095;-81
2022/12/22 10:52:52;;;;;;;30.13;17.90;;;;;;;9.47;100.00;99996.97;5063517;28;20064;-80
2022/12/22 10:55:21;;;;;;;28.45;17.33;;;;;;;9.50;100.00;100017.53;5055954;28;20045;-80
2022/12/22 10:57:48;;;;;;;25.40;16.75;;;;;;;9.54;100.00;100017.03;5058453;28;20081;-79
2022/12/22 11:00:27;;;;;;;26.70;16.13;;;;;;;9.69;100.00;100016.38;5066830;28;20083;-80
2022/12/22 11:02:56;;;;;;;22.10;15.00;;;;;;;9.85;100.00;100011.13;5044800;28;20077;-80
2022/12/22 11:05:24;;;;;;;22.08;14.88;;;;;;;9.83;100.00;100013.09;5043010;28;20073;-80
2022/12/22 11:07:50;;;;;;;23.08;14.35;;;;;;;9.73;100.00;100012.47;5043297;28;20478;-81
2022/12/22 11:10:24;;;;;;;26.40;14.40;;;;;;;9.63;100.00;100017.84;5041963;28;20117;-81
2022/12/22 11:13:08;;;;;;;19.63;13.23;;;;;;;9.54;100.00;100024.06;5056591;28;20132;-83
2022/12/22 11:15:42;;;;;;;21.65;14.27;;;;;;;9.51;100.00;100030.41;5060377;28;20041;-82
2022/12/22 11:18:27;;;;;;;23.20;13.20;;;;;;;9.48;100.00;100030.75;5053324;28;20387;-80
2022/12/22 11:21:01;;;;;;;21.27;13.60;;;;;;;9.44;100.00;100044.31;5040377;28;20100;-80
2022/12/22 11:23:36;;;;;;;20.15;13.45;;;;;;;9.50;100.00;100046.25;5054390;28;20515;-81
2022/12/22 11:26:11;;;;;;;21.58;14.10;;;;;;;9.48;100.00;100051.63;5059146;28;20095;-81
2022/12/22 11:28:54;;;;;;;22.25;14.38;;;;;;;9.44;100.00;100060.81;5050377;28;20128;-81
2022/12/22 11:31:40;;;;;;;23.58;14.60;;;;;;;9.31;100.00;100057.84;5045332;28;20101;-79
2022/12/22 11:34:18;;;;;;;25.00;14.70;;;;;;;9.28;100.00;100060.78;5058371;28;20088;-80
2022/12/22 11:37:01;;;;;;;26.02;15.38;;;;;;;9.21;100.00;100062.41;5058946;28;20136;-82
2022/12/22 11:39:40;;;;;;;25.48;14.80;;;;;;;9.25;100.00;100066.31;5067361;28;20079;-81
2022/12/22 11:42:23;;;;;;;26.10;15.35;;;;;;;9.37;100.00;100074.66;5067147;28;20045;-81
2022/12/22 11:45:02;;;;;;;30.45;16.75;;;;;;;9.54;100.00;100079.72;5059604;28;20045;-79
2022/12/22 11:47:39;;;;;;;29.05;17.85;;;;;;;9.71;100.00;100077.94;5047341;28;20135;-81
2022/12/22 11:50:27;;;;;;;28.13;16.85;;;;;;;9.84;100.00;100083.50;5048393;28;20077;-80
2022/12/22 11:53:01;;;;;;;34.00;18.55;;;;;;;9.88;100.00;100066.50;5046757;28;20762;-80
2022/12/22 11:55:35;;;;;;;25.67;15.65;;;;;;;9.88;100.00;100076.94;5048018;28;20046;-81
2022/12/22 11:58:20;;;;;;;23.30;14.38;;;;;;;9.73;100.00;100073.38;5047176;28;20053;-79
2022/12/22 12:00:54;;;;;;;26.88;14.60;;;;;;;9.65;100.00;100076.78;5050089;28;20135;-82
2022/12/22 12:03:54;;;;;;;29.55;16.65;;;;;;;9.60;100.00;100073.03;5046070;28;20048;-79
2022/12/22 12:06:35;;;;;;;30.05;16.48;;;;;;;9.48;100.00;100076.94;5046028;28;20041;-80
2022/12/22 12:09:17;;;;;;;28.33;16.55;;;;;;;9.39;100.00;100078.75;5050338;28;20133;-80
2022/12/22 12:11:52;;;;;;;30.20;17.05;;;;;;;9.33;100.00;100087.22;5052982;28;20045;-81
2022/12/22 12:14:27;;;;;;;27.52;15.90;;;;;;;9.27;100.00;100088.69;5045458;28;20069;-81
2022/12/22 12:16:59;;;;;;;26.88;15.30;;;;;;;9.23;100.00;100094.38;5050512;28;20087;-81
2022/12/22 12:19:55;;;;;;;27.05;15.05;;;;;;;9.24;100.00;100094.22;5048800;28;20045;-84
2022/12/22 12:22:36;;;;;;;23.92;14.52;;;;;;;9.31;100.00;100089.19;5040668;28;20060;-82
2022/12/22 12:25:21;;;;;;;26.77;14.88;;;;;;;9.47;100.00;100086.56;5040866;28;20128;-82
2022/12/22 12:28:20;;;;;;;28.48;15.13;;;;;;;9.59;100.00;100094.91;5047785;28;20045;-85
2022/12/22 12:33:59;;;;;;;24.02;14.95;;;;;;;9.85;100.00;100102.59;5025327;28;20159;-80
2022/12/22 12:36:43;;;;;;;20.35;13.40;;;;;;;9.89;100.00;100090.84;5043472;28;20083;-82
2022/12/22 12:39:16;;;;;;;14.93;9.07;;;;;;;9.94;100.00;100088.53;5049374;28;20049;-81
2022/12/22 12:41:53;;;;;;;16.63;9.98;;;;;;;9.86;100.00;100086.75;5059796;28;20068;-80
2022/12/22 12:44:24;;;;;;;17.48;10.35;;;;;;;9.95;100.00;100077.09;5059170;28;20132;-79
2022/12/22 12:47:05;;;;;;;17.15;11.27;;;;;;;9.97;100.00;100077.72;5043832;28;20469;-83
2022/12/22 12:50:08;;;;;;;15.75;10.27;;;;;;;9.88;100.00;100078.75;5045628;28;20053;-82
2022/12/22 12:52:53;;;;;;;;;;;;;;;9.89;99.28;100075.97;5046881;28;20084;-82
2022/12/22 12:55:30;;;;;;;16.42;9.68;;;;;;;9.88;98.98;100071.72;5048318;28;20339;-82
2022/12/22 12:58:03;;;;;;;15.82;9.40;;;;;;;9.92;98.35;100074.81;5058062;28;20056;-82
2022/12/22 13:00:48;;;;;;;12.75;8.98;;;;;;;9.90;98.59;100077.59;5046318;28;20050;-82
2022/12/22 13:03:37;;;;;;;12.85;8.90;;;;;;;9.90;98.27;100077.59;5055900;28;20488;-84
2022/12/22 13:06:13;;;;;;;14.23;8.60;;;;;;;9.91;97.56;100081.03;5042900;28;20053;-85
2022/12/22 13:09:21;;;;;;;15.00;8.65;;;;;;;9.83;97.24;100065.34;5062367;28;20106;-84
2022/12/22 13:12:30;;;;;;;16.02;9.35;;;;;;;9.71;97.39;100082.34;5051606;28;20096;-84
2022/12/22 13:15:00;;;;;;;13.88;9.20;;;;;;;9.52;97.33;100059.97;5057862;28;20060;-83
2022/12/22 13:18:05;;;;;;;13.63;8.95;;;;;;;9.54;98.41;100084.94;5064069;28;20049;-84
2022/12/22 13:20:50;;;;;;;12.55;9.07;;;;;;;9.47;98.44;100065.66;5060895;28;20056;-83
2022/12/22 13:23:26;;;;;;;17.95;9.30;;;;;;;9.55;98.40;100068.28;5054359;28;20110;-82
2022/12/22 13:25:58;;;;;;;15.85;9.85;;;;;;;9.53;99.22;100065.03;5044195;28;20077;-82
2022/12/22 13:28:26;;;;;;;14.40;9.55;;;;;;;9.64;99.13;100069.94;5048711;28;20071;-82
2022/12/22 13:31:03;;;;;;;16.95;9.25;;;;;;;9.80;99.13;100081.38;5041077;28;20103;-78
2022/12/22 13:33:41;;;;;;;18.23;10.02;;;;;;;9.80;98.81;100076.97;5037391;28;20141;-80
2022/12/22 13:36:18;;;;;;;15.48;10.23;;;;;;;9.86;99.39;100075.47;5051160;28;20052;-82
2022/12/22 13:39:08;;;;;;;14.30;10.52;;;;;;;9.93;98.69;100069.41;5049138;28;20483;-79
2022/12/22 13:41:37;;;;;;;14.15;10.68;;;;;;;9.88;98.42;100084.78;5038450;28;20132;-82
2022/12/22 13:44:11;;;;;;;12.00;9.45;;;;;;;9.88;97.86;100078.75;5041280;28;20096;-82
2022/12/22 13:46:43;;;;;;;11.35;8.98;;;;;;;9.85;98.07;100073.84;5042895;28;20124;-83
2022/12/22 13:49:34;;;;;;;15.77;9.75;;;;;;;9.70;97.59;100063.25;5049351;28;20048;-79
2022/12/22 13:52:04;;;;;;;13.80;9.52;;;;;;;9.54;98.12;100056.22;5045502;28;20085;-82
2022/12/22 13:54:38;;;;;;;12.95;9.48;;;;;;;9.52;98.09;100071.22;5053077;28;20060;-82
2022/12/22 13:57:13;;;;;;;12.15;9.73;;;;;;;9.52;99.11;100084.28;5057336;28;20049;-81
2022/12/22 13:59:42;;;;;;;13.10;9.63;;;;;;;9.54;99.42;100097.19;5060258;28;20057;-78
2022/12/22 14:02:19;;;;;;;14.65;8.88;;;;;;;9.40;100.00;100085.59;5058046;28;20061;-80
2022/12/22 14:05:06;;;;;;;14.95;9.88;;;;;;;9.40;99.89;100090.84;5053082;28;20130;-81
2022/12/22 14:07:32;;;;;;;13.95;9.70;;;;;;;9.39;100.00;100093.59;5052814;28;20046;-80
2022/12/22 14:09:59;;;;;;;13.95;10.15;;;;;;;9.30;100.00;100088.38;5060639;28;20048;-84
2022/12/22 14:12:34;;;;;;;14.18;9.70;;;;;;;9.35;100.00;100089.69;5059905;28;20053;-80
2022/12/22 14:15:03;;;;;;;14.50;9.95;;;;;;;9.19;100.00;100061.75;5046130;28;20042;-81
2022/12/22 14:17:35;;;;;;;14.15;9.35;;;;;;;9.21;100.00;100065.81;5066298;28;20063;-80
2022/12/22 14:20:16;;;;;;;14.50;10.68;;;;;;;9.52;100.00;100084.28;5060201;28;20095;-82
2022/12/22 14:22:46;;;;;;;16.60;10.60;;;;;;;9.48;100.00;100080.38;5052017;28;20041;-83
2022/12/22 14:25:17;;;;;;;15.48;10.13;;;;;;;9.35;100.00;100072.22;5054337;28;20107;-81
2022/12/22 14:27:47;;;;;;;16.00;10.07;;;;;;;9.28;100.00;100076.44;5055668;28;20057;-81
2022/12/22 14:30:18;;;;;;;16.42;9.60;;;;;;;9.31;100.00;100086.56;5057298;28;20091;-82
2022/12/22 14:32:51;;;;;;;13.35;9.73;;;;;;;9.33;100.00;100084.63;5050278;28;20060;-78
2022/12/22 14:35:30;;;;;;;11.68;9.55;;;;;;;9.34;100.00;100080.22;5057810;28;20394;-81
2022/12/22 14:38:20;;;;;;;14.60;9.45;;;;;;;9.21;100.00;100075.44;5056489;28;20050;-82
2022/12/22 14:40:48;;;;;;;14.57;10.02;;;;;;;9.13;100.00;100078.03;5057954;28;20148;-79
2022/12/22 14:43:25;;;;;;;13.10;9.23;;;;;;;9.20;100.00;100079.84;5055643;28;20091;-80
2022/12/22 14:46:03;;;;;;;16.83;8.77;;;;;;;9.25;100.00;100071.53;5061024;28;20055;-81
2022/12/22 14:48:34;;;;;;;13.23;8.70;;;;;;;9.28;100.00;100068.63;5052568;28;20046;-81
2022/12/22 14:51:02;;;;;;;9.98;7.70;;;;;;;9.32;100.00;100065.53;5024877;28;20054;-82
2022/12/22 14:53:39;;;;;;;11.27;8.48;;;;;;;9.27;100.00;100051.31;5006531;28;20042;-81
2022/12/22 14:56:12;;;;;;;9.98;7.28;;;;;;;9.27;100.00;100056.53;5003265;28;20077;-80
2022/12/22 14:58:41;;;;;;;9.15;6.55;;;;;;;9.16;100.00;100044.59;5002391;28;20098;-81
2022/12/22 15:01:20;;;;;;;9.10;6.57;;;;;;;9.18;100.00;100047.06;4996268;23;20055;-78
2022/12/22 15:04:01;;;;;;;9.23;6.53;;;;;;;9.10;100.00;100040.03;4976530;28;20165;-79
2022/12/22 15:06:37;;;;;;;8.60;6.32;;;;;;;9.13;100.00;100036.28;4984277;28;20092;-78
2022/12/22 15:09:24;;;;;;;8.02;5.55;;;;;;;9.11;100.00;100033.81;4978546;28;20139;-78
2022/12/22 15:11:54;;;;;;;6.18;5.10;;;;;;;9.06;100.00;100023.06;4983001;28;20135;-78
2022/12/22 15:14:23;;;;;;;7.97;5.30;;;;;;;9.08;100.00;100033.34;4983709;28;20047;-79
2022/12/22 15:16:50;;;;;;;6.75;5.20;;;;;;;9.06;100.00;100028.28;4980067;28;20391;-78
2022/12/22 15:19:21;;;;;;;6.57;4.97;;;;;;;9.01;100.00;100016.69;4981754;28;20078;-79
2022/12/22 15:21:48;;;;;;;7.22;5.22;;;;;;;9.02;100.00;100010.47;4982906;28;20057;-79